Miami, TX

11:35 AM CST on March 04, 2015 (GMT -0600)
Hemphill County | Change Station
CLOSE
Current Station
Airport
Location: Canadian,
Elevation: 2395 ft
Nearby Weather Stations
Active Advisory: Winter Weather Advisory

Elev 2395 ft 35.89 °N, 100.40 °W | Updated 20 minutes ago

Snow
Snow
22 °F
Feels Like 7 °F
N
20
Wind Variable Wind from NNE
Gusts 29 mph

Today
High -- | Low -- °F
--% Chance of Precip.
Yesterday
High -- | Low -- °F
Precip. -- in
7:08 AM 6:40 PM
Waxing Gibbous, 99% visible
Pressure 30.22 in
Visibility 5.0 miles
Clouds Overcast 1200 ft
Windchill 7 °F
Dew Point 19 °F
Humidity 87%
Rainfall 0.00 in
Snow Depth Not available.
UV 2 out of 12
Pollen .90 out of 12
Air Quality Not available.
Flu Activity Not available.
METAR KHHF 041715Z AUTO 02017G25KT 5SM BR OVC012 M05/M07 A3022 RMK AO2 T10541072

More Conditions Fewer Conditions

Pressure 30.22 in
Visibility 5.0 miles
Clouds Overcast 1200 ft
Windchill 7 °F
Dew Point 19 °F
Humidity 87%
Rainfall 0.00 in
Snow Depth Not available.
UV 2 out of 12
Pollen .90 out of 12
Air Quality Not available.
Flu Activity Not available.
METAR KHHF 041715Z AUTO 02017G25KT 5SM BR OVC012 M05/M07 A3022 RMK AO2 T10541072

More Conditions Fewer Conditions

10-Day Weather Forecast

Almanac

Astronomy

Mar. 04, 2015 Rise Set
Actual Time
Civil Twilight
Nautical Twilight
Astronomical Twilight
Moon
Length of Visible Light
Length of Day
Tomorrow will be .
, % of the Moon is Illuminated

Today's Extremes

State Highs State Lows

Community

WunderPhotos

Upload Photos

1,802,514 photos uploaded!

WunderBlogs® & News

Nearby

Air Quality

  Air Quality AQ Index Pollutant
Not available.

Snow Depth

Station Depth Elevation

Earthquake Activity

City Distance Mag. Time & Date
Minimum magnitude displayed is 2.5.

Coastal Water Temperatures

Place Temperature

Nearby Weather Stations

Winter Weather Advisory
Statement as of 6:47 AM CST on March 04, 2015

... Winter Weather Advisory remains in effect until midnight CST
tonight...

A Winter Weather Advisory for snow and freezing drizzle remains in
effect until midnight CST tonight.

* Event... a mix of light snow and freezing drizzle is expected this
morning. Light ice accumulations from freezing drizzle will be
possible. A transition to all snow is expected by midday today with
total snow accumulations ranging from 1 to 2 inches. Locally higher
amounts may be possible.

* Timing... a mix of light snow and freezing drizzle will continue
this morning. Snow will become the dominant precipitation type by
late morning or midday today. Snow will end this evening.

* Impacts... roads and bridges will likely be snow packed and
icy... resulting in hazardous travel conditions.

Precautionary/preparedness actions...

A Winter Weather Advisory means that periods of snow... sleet... or
freezing rain will cause travel difficulties. Be prepared for
slippery roads and limited visibilities... and use caution while
driving.



Schneider